sensor_id;sensor_type;location;lat;lon;timestamp;pressure;altitude;pressure_sealevel;temperature;humidity
46392;BME280;32098;49.448;7.904;2023-02-18T00:01:31;99027.16;;;9.08;91.60
46392;BME280;32098;49.448;7.904;2023-02-18T00:03:59;99017.72;;;9.06;91.96
46392;BME280;32098;49.448;7.904;2023-02-18T00:06:31;99048.31;;;9.16;91.94
46392;BME280;32098;49.448;7.904;2023-02-18T00:08:59;99034.38;;;9.14;91.76
46392;BME280;32098;49.448;7.904;2023-02-18T00:11:30;98994.31;;;8.88;91.98
46392;BME280;32098;49.448;7.904;2023-02-18T00:13:59;99021.63;;;9.10;91.25
46392;BME280;32098;49.448;7.904;2023-02-18T00:16:27;99010.72;;;8.98;91.90
46392;BME280;32098;49.448;7.904;2023-02-18T00:19:02;99029.22;;;9.06;92.67
46392;BME280;32098;49.448;7.904;2023-02-18T00:21:32;99030.84;;;9.07;92.89
46392;BME280;32098;49.448;7.904;2023-02-18T00:23:59;99002.97;;;8.97;92.69
46392;BME280;32098;49.448;7.904;2023-02-18T00:26:26;99019.16;;;9.02;92.80
46392;BME280;32098;49.448;7.904;2023-02-18T00:28:53;99038.22;;;9.05;93.15
46392;BME280;32098;49.448;7.904;2023-02-18T00:31:26;98984.44;;;8.76;92.63
46392;BME280;32098;49.448;7.904;2023-02-18T00:33:53;99032.03;;;8.92;92.91
46392;BME280;32098;49.448;7.904;2023-02-18T00:36:21;99031.44;;;8.96;92.87
46392;BME280;32098;49.448;7.904;2023-02-18T00:38:53;99008.84;;;8.86;92.56
46392;BME280;32098;49.448;7.904;2023-02-18T00:41:22;99023.66;;;8.95;92.39
46392;BME280;32098;49.448;7.904;2023-02-18T00:43:49;98980.75;;;8.77;91.76
46392;BME280;32098;49.448;7.904;2023-02-18T00:46:18;99015.25;;;8.98;91.18
46392;BME280;32098;49.448;7.904;2023-02-18T00:48:46;99023.28;;;9.11;90.93
46392;BME280;32098;49.448;7.904;2023-02-18T00:51:13;99011.63;;;9.12;90.65
46392;BME280;32098;49.448;7.904;2023-02-18T00:53:40;99015.69;;;9.08;90.88
46392;BME280;32098;49.448;7.904;2023-02-18T00:56:06;98995.38;;;9.00;90.75
46392;BME280;32098;49.448;7.904;2023-02-18T00:58:35;99006.22;;;8.99;91.30
46392;BME280;32098;49.448;7.904;2023-02-18T01:01:04;98992.91;;;8.92;91.07
46392;BME280;32098;49.448;7.904;2023-02-18T01:03:34;98966.84;;;8.81;91.00
46392;BME280;32098;49.448;7.904;2023-02-18T01:06:02;99010.56;;;9.06;91.17
46392;BME280;32098;49.448;7.904;2023-02-18T01:08:32;98982.41;;;8.84;90.79
46392;BME280;32098;49.448;7.904;2023-02-18T01:10:59;98976.50;;;8.89;90.67
46392;BME280;32098;49.448;7.904;2023-02-18T01:13:27;98990.03;;;9.00;90.73
46392;BME280;32098;49.448;7.904;2023-02-18T01:15:54;99015.91;;;9.13;90.78
46392;BME280;32098;49.448;7.904;2023-02-18T01:18:21;99007.28;;;9.04;91.00
46392;BME280;32098;49.448;7.904;2023-02-18T01:20:48;99023.06;;;9.12;91.44
46392;BME280;32098;49.448;7.904;2023-02-18T01:23:15;99039.88;;;9.13;92.24
46392;BME280;32098;49.448;7.904;2023-02-18T01:25:42;99015.69;;;9.08;91.98
46392;BME280;32098;49.448;7.904;2023-02-18T01:28:10;99031.28;;;9.17;92.36
46392;BME280;32098;49.448;7.904;2023-02-18T01:30:38;99017.34;;;9.15;92.28
46392;BME280;32098;49.448;7.904;2023-02-18T01:33:06;99019.56;;;9.05;93.53
46392;BME280;32098;49.448;7.904;2023-02-18T01:35:33;98999.84;;;8.93;93.80
46392;BME280;32098;49.448;7.904;2023-02-18T01:38:03;99015.28;;;9.04;94.63
46392;BME280;32098;49.448;7.904;2023-02-18T01:40:31;99014.66;;;9.02;94.72
46392;BME280;32098;49.448;7.904;2023-02-18T01:42:59;98990.81;;;8.81;95.25
46392;BME280;32098;49.448;7.904;2023-02-18T01:48:09;99011.56;;;8.92;95.19
46392;BME280;32098;49.448;7.904;2023-02-18T01:50:46;98993.47;;;8.75;95.01
46392;BME280;32098;49.448;7.904;2023-02-18T01:53:19;99027.13;;;8.95;94.47
46392;BME280;32098;49.448;7.904;2023-02-18T01:55:47;99015.22;;;8.91;93.58
46392;BME280;32098;49.448;7.904;2023-02-18T01:58:16;98993.25;;;8.76;93.47
46392;BME280;32098;49.448;7.904;2023-02-18T02:00:44;99010.88;;;8.84;93.21
46392;BME280;32098;49.448;7.904;2023-02-18T02:03:13;98973.13;;;8.67;92.70
46392;BME280;32098;49.448;7.904;2023-02-18T02:05:42;99024.06;;;8.98;92.17
46392;BME280;32098;49.448;7.904;2023-02-18T02:08:13;99011.34;;;8.87;91.76
46392;BME280;32098;49.448;7.904;2023-02-18T02:13:43;98983.25;;;8.85;90.76
46392;BME280;32098;49.448;7.904;2023-02-18T02:19:32;99002.34;;;9.01;90.58
46392;BME280;32098;49.448;7.904;2023-02-18T02:25:00;99004.00;;;9.02;91.75
46392;BME280;32098;49.448;7.904;2023-02-18T02:34:13;98981.22;;;8.93;94.26
46392;BME280;32098;49.448;7.904;2023-02-18T02:39:26;98950.63;;;8.76;93.57
46392;BME280;32098;49.448;7.904;2023-02-18T02:42:15;98968.94;;;8.92;93.07
46392;BME280;32098;49.448;7.904;2023-02-18T02:44:46;98965.84;;;8.89;92.97
46392;BME280;32098;49.448;7.904;2023-02-18T02:47:43;98964.63;;;8.91;92.60
46392;BME280;32098;49.448;7.904;2023-02-18T02:50:53;98963.56;;;8.86;93.04
46392;BME280;32098;49.448;7.904;2023-02-18T02:53:26;98971.75;;;8.84;93.39
46392;BME280;32098;49.448;7.904;2023-02-18T02:55:55;98890.25;;;8.36;93.33
46392;BME280;32098;49.448;7.904;2023-02-18T02:58:23;98974.22;;;8.79;93.19
46392;BME280;32098;49.448;7.904;2023-02-18T03:01:14;98965.59;;;8.77;93.17
46392;BME280;32098;49.448;7.904;2023-02-18T03:04:18;98963.56;;;8.86;92.67
46392;BME280;32098;49.448;7.904;2023-02-18T03:06:59;98964.34;;;8.73;92.59
46392;BME280;32098;49.448;7.904;2023-02-18T03:15:03;98946.91;;;8.71;90.78
46392;BME280;32098;49.448;7.904;2023-02-18T03:17:40;98925.38;;;8.66;89.87
46392;BME280;32098;49.448;7.904;2023-02-18T03:20:27;98930.31;;;8.69;89.17
46392;BME280;32098;49.448;7.904;2023-02-18T03:22:59;98915.09;;;8.63;88.78
46392;BME280;32098;49.448;7.904;2023-02-18T03:25:27;98941.00;;;8.75;88.22
46392;BME280;32098;49.448;7.904;2023-02-18T03:27:57;98888.47;;;8.56;87.76
46392;BME280;32098;49.448;7.904;2023-02-18T03:30:45;98928.94;;;8.79;87.43
46392;BME280;32098;49.448;7.904;2023-02-18T03:33:17;98949.25;;;8.93;87.42
46392;BME280;32098;49.448;7.904;2023-02-18T03:35:46;98941.84;;;8.82;86.97
46392;BME280;32098;49.448;7.904;2023-02-18T03:38:22;98923.16;;;8.69;87.15
46392;BME280;32098;49.448;7.904;2023-02-18T03:40:49;98971.38;;;8.87;87.18
46392;BME280;32098;49.448;7.904;2023-02-18T03:43:17;98956.56;;;8.78;86.41
46392;BME280;32098;49.448;7.904;2023-02-18T03:45:43;98945.28;;;8.70;86.42
46392;BME280;32098;49.448;7.904;2023-02-18T03:48:10;98937.31;;;8.76;85.76
46392;BME280;32098;49.448;7.904;2023-02-18T03:50:37;98953.78;;;8.99;85.18
46392;BME280;32098;49.448;7.904;2023-02-18T03:53:04;98941.03;;;8.88;84.75
46392;BME280;32098;49.448;7.904;2023-02-18T03:55:31;98923.81;;;8.84;84.48
46392;BME280;32098;49.448;7.904;2023-02-18T03:57:57;98925.88;;;8.82;84.57
46392;BME280;32098;49.448;7.904;2023-02-18T04:00:24;98919.91;;;8.80;84.50
46392;BME280;32098;49.448;7.904;2023-02-18T04:02:51;98939.41;;;8.94;84.29
46392;BME280;32098;49.448;7.904;2023-02-18T04:05:18;98915.41;;;8.74;84.27
46392;BME280;32098;49.448;7.904;2023-02-18T04:07:48;98909.03;;;8.75;84.06
46392;BME280;32098;49.448;7.904;2023-02-18T04:10:20;98932.81;;;8.83;83.80
46392;BME280;32098;49.448;7.904;2023-02-18T04:12:48;98920.94;;;8.79;83.71
46392;BME280;32098;49.448;7.904;2023-02-18T04:15:15;98913.78;;;8.80;83.12
46392;BME280;32098;49.448;7.904;2023-02-18T04:17:42;98925.44;;;8.85;83.39
46392;BME280;32098;49.448;7.904;2023-02-18T04:20:09;98917.06;;;8.82;83.14
46392;BME280;32098;49.448;7.904;2023-02-18T04:22:36;98897.59;;;8.81;82.76
46392;BME280;32098;49.448;7.904;2023-02-18T04:25:03;98909.91;;;8.89;82.54
46392;BME280;32098;49.448;7.904;2023-02-18T04:27:30;98899.63;;;8.79;82.75
46392;BME280;32098;49.448;7.904;2023-02-18T04:29:57;98908.88;;;8.90;82.11
46392;BME280;32098;49.448;7.904;2023-02-18T04:32:24;98899.63;;;8.79;81.97
46392;BME280;32098;49.448;7.904;2023-02-18T04:34:51;98912.78;;;8.87;81.77
46392;BME280;32098;49.448;7.904;2023-02-18T04:37:18;98864.94;;;8.59;81.38
46392;BME280;32098;49.448;7.904;2023-02-18T04:39:45;98915.84;;;8.84;81.16
46392;BME280;32098;49.448;7.904;2023-02-18T04:42:11;98911.72;;;8.82;80.85
46392;BME280;32098;49.448;7.904;2023-02-18T04:44:38;98917.66;;;8.77;80.76
46392;BME280;32098;49.448;7.904;2023-02-18T04:47:06;98902.31;;;8.79;80.73
46392;BME280;32098;49.448;7.904;2023-02-18T04:49:34;98894.31;;;8.79;80.08
46392;BME280;32098;49.448;7.904;2023-02-18T04:52:02;98894.50;;;8.71;79.96
46392;BME280;32098;49.448;7.904;2023-02-18T04:54:30;98904.75;;;8.74;79.95
46392;BME280;32098;49.448;7.904;2023-02-18T04:56:58;98880.09;;;8.59;79.62
46392;BME280;32098;49.448;7.904;2023-02-18T04:59:25;98903.72;;;8.75;79.23
46392;BME280;32098;49.448;7.904;2023-02-18T05:01:53;98905.34;;;8.76;79.20
46392;BME280;32098;49.448;7.904;2023-02-18T05:04:20;98897.16;;;8.71;79.17
46392;BME280;32098;49.448;7.904;2023-02-18T05:06:47;98885.28;;;8.74;78.72
46392;BME280;32098;49.448;7.904;2023-02-18T05:09:14;98887.25;;;8.65;78.83
46392;BME280;32098;49.448;7.904;2023-02-18T05:11:41;98881.94;;;8.65;78.58
46392;BME280;32098;49.448;7.904;2023-02-18T05:14:10;98893.63;;;8.64;78.92
46392;BME280;32098;49.448;7.904;2023-02-18T05:16:37;98871.28;;;8.52;78.99
46392;BME280;32098;49.448;7.904;2023-02-18T05:19:04;98911.22;;;8.58;79.15
46392;BME280;32098;49.448;7.904;2023-02-18T05:21:30;98913.88;;;8.65;78.99
46392;BME280;32098;49.448;7.904;2023-02-18T05:23:57;98906.09;;;8.57;79.08
46392;BME280;32098;49.448;7.904;2023-02-18T05:26:24;98907.81;;;8.71;78.90
46392;BME280;32098;49.448;7.904;2023-02-18T05:28:54;98890.16;;;8.70;78.48
46392;BME280;32098;49.448;7.904;2023-02-18T05:31:23;98870.63;;;8.50;78.07
46392;BME280;32098;49.448;7.904;2023-02-18T05:33:50;98871.50;;;8.64;78.14
46392;BME280;32098;49.448;7.904;2023-02-18T05:36:17;98889.59;;;8.81;78.68
46392;BME280;32098;49.448;7.904;2023-02-18T05:38:43;98875.84;;;8.71;78.50
46392;BME280;32098;49.448;7.904;2023-02-18T05:41:10;98894.72;;;8.76;78.51
46392;BME280;32098;49.448;7.904;2023-02-18T05:43:37;98878.44;;;8.58;78.67
46392;BME280;32098;49.448;7.904;2023-02-18T05:46:22;98882.19;;;8.70;78.93
46392;BME280;32098;49.448;7.904;2023-02-18T05:48:49;98891.88;;;8.84;78.66
46392;BME280;32098;49.448;7.904;2023-02-18T05:51:16;98881.00;;;8.79;78.63
46392;BME280;32098;49.448;7.904;2023-02-18T05:53:46;98888.91;;;8.66;79.19
46392;BME280;32098;49.448;7.904;2023-02-18T05:56:12;98876.59;;;8.65;79.55
46392;BME280;32098;49.448;7.904;2023-02-18T05:58:39;98843.00;;;8.51;79.65
46392;BME280;32098;49.448;7.904;2023-02-18T06:01:05;98852.63;;;8.52;79.55
46392;BME280;32098;49.448;7.904;2023-02-18T06:03:32;98889.91;;;8.65;80.16
46392;BME280;32098;49.448;7.904;2023-02-18T06:05:59;98817.94;;;8.26;80.04
46392;BME280;32098;49.448;7.904;2023-02-18T06:08:26;98884.06;;;8.76;79.83
46392;BME280;32098;49.448;7.904;2023-02-18T06:10:53;98883.03;;;8.77;80.12
46392;BME280;32098;49.448;7.904;2023-02-18T06:13:20;98873.41;;;8.70;80.15
46392;BME280;32098;49.448;7.904;2023-02-18T06:15:49;98884.06;;;8.76;80.05
46392;BME280;32098;49.448;7.904;2023-02-18T06:18:18;98867.63;;;8.66;80.24
46392;BME280;32098;49.448;7.904;2023-02-18T06:20:48;98866.41;;;8.69;80.31
46392;BME280;32098;49.448;7.904;2023-02-18T06:23:15;98828.69;;;8.52;80.26
46392;BME280;32098;49.448;7.904;2023-02-18T06:25:43;98865.41;;;8.76;80.28
46392;BME280;32098;49.448;7.904;2023-02-18T06:28:13;98866.44;;;8.75;80.62
46392;BME280;32098;49.448;7.904;2023-02-18T06:30:40;98850.81;;;8.59;81.12
46392;BME280;32098;49.448;7.904;2023-02-18T06:33:08;98837.28;;;8.54;81.44
46392;BME280;32098;49.448;7.904;2023-02-18T06:35:35;98860.09;;;8.76;81.15
46392;BME280;32098;49.448;7.904;2023-02-18T06:38:02;98844.72;;;8.72;81.27
46392;BME280;32098;49.448;7.904;2023-02-18T06:40:29;98850.88;;;8.79;81.26
46392;BME280;32098;49.448;7.904;2023-02-18T06:42:55;98838.16;;;8.74;81.27
46392;BME280;32098;49.448;7.904;2023-02-18T06:45:22;98828.75;;;8.72;81.55
46392;BME280;32098;49.448;7.904;2023-02-18T06:47:49;98761.47;;;8.24;81.82
46392;BME280;32098;49.448;7.904;2023-02-18T06:50:16;98772.31;;;8.29;81.55
46392;BME280;32098;49.448;7.904;2023-02-18T06:52:45;98845.56;;;8.72;81.49
46392;BME280;32098;49.448;7.904;2023-02-18T06:55:12;98822.59;;;8.71;81.14
46392;BME280;32098;49.448;7.904;2023-02-18T06:57:41;98824.19;;;8.66;81.42
46392;BME280;32098;49.448;7.904;2023-02-18T07:00:08;98810.66;;;8.54;81.36
46392;BME280;32098;49.448;7.904;2023-02-18T07:02:36;98812.72;;;8.65;80.94
46392;BME280;32098;49.448;7.904;2023-02-18T07:05:04;98819.69;;;8.66;81.39
46392;BME280;32098;49.448;7.904;2023-02-18T07:07:31;98830.78;;;8.70;81.09
46392;BME280;32098;49.448;7.904;2023-02-18T07:10:00;98802.47;;;8.49;81.35
46392;BME280;32098;49.448;7.904;2023-02-18T07:12:27;98817.59;;;8.55;81.44
46392;BME280;32098;49.448;7.904;2023-02-18T07:14:54;98796.34;;;8.62;81.00
46392;BME280;32098;49.448;7.904;2023-02-18T07:17:20;98812.38;;;8.75;80.92
46392;BME280;32098;49.448;7.904;2023-02-18T07:19:47;98803.50;;;8.61;80.82
46392;BME280;32098;49.448;7.904;2023-02-18T07:22:15;98814.81;;;8.76;80.77
46392;BME280;32098;49.448;7.904;2023-02-18T07:24:42;98775.41;;;8.45;80.79
46392;BME280;32098;49.448;7.904;2023-02-18T07:27:08;98815.44;;;8.91;83.04
46392;BME280;32098;49.448;7.904;2023-02-18T07:29:35;98809.25;;;9.30;81.69
46392;BME280;32098;49.448;7.904;2023-02-18T07:32:02;98804.94;;;9.49;77.74
46392;BME280;32098;49.448;7.904;2023-02-18T07:34:30;98751.91;;;9.08;77.35
46392;BME280;32098;49.448;7.904;2023-02-18T07:36:57;98789.41;;;9.26;77.13
46392;BME280;32098;49.448;7.904;2023-02-18T07:39:26;98794.75;;;9.00;78.23
46392;BME280;32098;49.448;7.904;2023-02-18T07:41:53;98796.78;;;9.17;78.22
46392;BME280;32098;49.448;7.904;2023-02-18T07:44:22;98813.59;;;9.11;78.13
46392;BME280;32098;49.448;7.904;2023-02-18T07:46:50;98801.28;;;9.10;77.77
46392;BME280;32098;49.448;7.904;2023-02-18T07:49:18;98820.34;;;9.20;77.61
46392;BME280;32098;49.448;7.904;2023-02-18T07:51:47;98799.25;;;8.99;77.37
46392;BME280;32098;49.448;7.904;2023-02-18T07:54:16;98809.50;;;8.96;78.07
46392;BME280;32098;49.448;7.904;2023-02-18T07:56:44;98833.88;;;9.12;77.88
46392;BME280;32098;49.448;7.904;2023-02-18T07:59:12;98791.06;;;8.94;77.60
46392;BME280;32098;49.448;7.904;2023-02-18T08:01:40;98816.88;;;9.13;77.46
46392;BME280;32098;49.448;7.904;2023-02-18T08:04:09;98761.13;;;8.73;77.48
46392;BME280;32098;49.448;7.904;2023-02-18T08:06:38;98816.88;;;9.07;77.11
46392;BME280;32098;49.448;7.904;2023-02-18T08:09:07;98820.56;;;9.06;77.16
46392;BME280;32098;49.448;7.904;2023-02-18T08:11:34;98828.16;;;9.09;77.01
46392;BME280;32098;49.448;7.904;2023-02-18T08:14:01;98809.91;;;8.99;77.18
46392;BME280;32098;49.448;7.904;2023-02-18T08:16:28;98827.72;;;9.05;77.41
46392;BME280;32098;49.448;7.904;2023-02-18T08:18:55;98813.59;;;9.11;77.30
46392;BME280;32098;49.448;7.904;2023-02-18T08:21:24;98815.44;;;9.17;77.21
46392;BME280;32098;49.448;7.904;2023-02-18T08:23:52;98812.16;;;9.15;77.39
46392;BME280;32098;49.448;7.904;2023-02-18T08:26:20;98801.31;;;9.04;77.50
46392;BME280;32098;49.448;7.904;2023-02-18T08:28:47;98828.34;;;9.20;77.37
46392;BME280;32098;49.448;7.904;2023-02-18T08:31:20;98831.03;;;9.27;77.08
46392;BME280;32098;49.448;7.904;2023-02-18T08:33:47;98805.81;;;9.16;77.49
46392;BME280;32098;49.448;7.904;2023-02-18T08:36:15;98817.47;;;9.29;77.16
46392;BME280;32098;49.448;7.904;2023-02-18T08:38:42;98798.00;;;9.15;77.16
46392;BME280;32098;49.448;7.904;2023-02-18T08:41:10;98812.34;;;9.34;76.90
46392;BME280;32098;49.448;7.904;2023-02-18T08:43:37;98764.22;;;9.09;76.75
46392;BME280;32098;49.448;7.904;2023-02-18T08:46:04;98804.53;;;9.39;76.79
46392;BME280;32098;49.448;7.904;2023-02-18T08:48:31;98802.50;;;9.41;76.85
46392;BME280;32098;49.448;7.904;2023-02-18T08:50:58;98788.13;;;9.35;77.04
46392;BME280;32098;49.448;7.904;2023-02-18T08:53:26;98791.03;;;9.34;76.67
46392;BME280;32098;49.448;7.904;2023-02-18T08:55:55;98750.25;;;9.13;76.48
46392;BME280;32098;49.448;7.904;2023-02-18T08:58:23;98797.16;;;9.47;76.18
46392;BME280;32098;49.448;7.904;2023-02-18T09:00:50;98779.94;;;9.43;76.69
46392;BME280;32098;49.448;7.904;2023-02-18T09:03:18;98768.25;;;9.44;76.05
46392;BME280;32098;49.448;7.904;2023-02-18T09:05:45;98790.56;;;9.56;75.96
46392;BME280;32098;49.448;7.904;2023-02-18T09:08:12;98781.97;;;9.48;75.96
46392;BME280;32098;49.448;7.904;2023-02-18T09:10:38;98799.63;;;9.42;75.80
46392;BME280;32098;49.448;7.904;2023-02-18T09:13:07;98788.97;;;9.42;75.56
46392;BME280;32098;49.448;7.904;2023-02-18T09:15:34;98793.47;;;9.55;75.84
46392;BME280;32098;49.448;7.904;2023-02-18T09:18:01;98791.00;;;9.40;75.50
46392;BME280;32098;49.448;7.904;2023-02-18T09:20:28;98798.34;;;9.58;74.91
46392;BME280;32098;49.448;7.904;2023-02-18T09:22:56;98814.72;;;9.68;73.92
46392;BME280;32098;49.448;7.904;2023-02-18T09:25:24;98807.75;;;9.73;74.34
46392;BME280;32098;49.448;7.904;2023-02-18T09:27:50;98722.78;;;9.19;73.97
46392;BME280;32098;49.448;7.904;2023-02-18T09:30:47;98784.44;;;9.49;73.75
46392;BME280;32098;49.448;7.904;2023-02-18T09:33:39;98824.00;;;9.59;73.77
46392;BME280;32098;49.448;7.904;2023-02-18T09:36:06;98820.31;;;9.60;73.36
46392;BME280;32098;49.448;7.904;2023-02-18T09:38:35;98816.41;;;9.56;73.74
46392;BME280;32098;49.448;7.904;2023-02-18T09:41:05;98795.94;;;9.50;73.50
46392;BME280;32098;49.448;7.904;2023-02-18T09:43:41;98819.94;;;9.50;73.63
46392;BME280;32098;49.448;7.904;2023-02-18T09:46:51;98829.53;;;9.64;73.51
46392;BME280;32098;49.448;7.904;2023-02-18T09:49:18;98815.41;;;9.57;73.33
46392;BME280;32098;49.448;7.904;2023-02-18T09:51:53;98791.03;;;9.34;73.77
46392;BME280;32098;49.448;7.904;2023-02-18T09:54:22;98815.19;;;9.52;73.74
46392;BME280;32098;49.448;7.904;2023-02-18T09:56:50;98778.72;;;9.33;73.63
46392;BME280;32098;49.448;7.904;2023-02-18T09:59:20;98817.25;;;9.50;73.64
46392;BME280;32098;49.448;7.904;2023-02-18T10:01:50;98811.50;;;9.46;73.06
46392;BME280;32098;49.448;7.904;2023-02-18T10:04:24;98804.97;;;9.29;73.51
46392;BME280;32098;49.448;7.904;2023-02-18T10:07:00;98805.41;;;9.19;73.21
46392;BME280;32098;49.448;7.904;2023-02-18T10:09:36;98807.63;;;9.42;73.48
46392;BME280;32098;49.448;7.904;2023-02-18T10:12:19;98811.91;;;9.43;72.86
46392;BME280;32098;49.448;7.904;2023-02-18T10:14:55;98827.91;;;9.56;73.06
46392;BME280;32098;49.448;7.904;2023-02-18T10:17:25;98801.66;;;9.47;72.66
46392;BME280;32098;49.448;7.904;2023-02-18T10:19:53;98816.41;;;9.62;72.29
46392;BME280;32098;49.448;7.904;2023-02-18T10:22:24;98816.78;;;9.66;72.21
46392;BME280;32098;49.448;7.904;2023-02-18T10:25:03;98836.91;;;9.62;71.88
46392;BME280;32098;49.448;7.904;2023-02-18T10:27:36;98832.81;;;9.59;71.62
46392;BME280;32098;49.448;7.904;2023-02-18T10:30:20;98831.56;;;9.68;70.88
46392;BME280;32098;49.448;7.904;2023-02-18T10:33:00;98804.97;;;9.36;71.01
46392;BME280;32098;49.448;7.904;2023-02-18T10:35:37;98834.88;;;9.57;71.14
46392;BME280;32098;49.448;7.904;2023-02-18T10:38:18;98835.28;;;9.61;70.69
46392;BME280;32098;49.448;7.904;2023-02-18T10:41:02;98846.53;;;9.63;70.46
46392;BME280;32098;49.448;7.904;2023-02-18T10:46:36;98863.59;;;9.49;70.42
46392;BME280;32098;49.448;7.904;2023-02-18T10:51:54;98817.91;;;9.06;69.12
46392;BME280;32098;49.448;7.904;2023-02-18T10:54:26;98853.97;;;9.28;68.90
46392;BME280;32098;49.448;7.904;2023-02-18T10:57:00;98828.34;;;9.20;67.83
46392;BME280;32098;49.448;7.904;2023-02-18T10:59:31;98860.94;;;9.42;67.59
46392;BME280;32098;49.448;7.904;2023-02-18T11:02:02;98857.25;;;9.43;68.01
46392;BME280;32098;49.448;7.904;2023-02-18T11:04:40;98816.47;;;9.16;67.64
46392;BME280;32098;49.448;7.904;2023-02-18T11:07:17;98857.84;;;9.52;66.54
46392;BME280;32098;49.448;7.904;2023-02-18T11:09:48;98861.56;;;9.57;66.76
46392;BME280;32098;49.448;7.904;2023-02-18T11:12:31;98805.16;;;9.28;66.14
46392;BME280;32098;49.448;7.904;2023-02-18T11:15:18;98853.56;;;9.44;66.58
46392;BME280;32098;49.448;7.904;2023-02-18T11:17:47;98866.88;;;9.64;65.97
46392;BME280;32098;49.448;7.904;2023-02-18T11:20:23;98857.41;;;9.68;65.53
46392;BME280;32098;49.448;7.904;2023-02-18T11:22:51;98853.28;;;9.85;65.69
46392;BME280;32098;49.448;7.904;2023-02-18T11:25:27;98846.28;;;9.97;66.10
46392;BME280;32098;49.448;7.904;2023-02-18T11:28:04;98855.06;;;9.98;64.76
46392;BME280;32098;49.448;7.904;2023-02-18T11:30:35;98848.94;;;9.97;64.66
46392;BME280;32098;49.448;7.904;2023-02-18T11:33:08;98842.97;;;9.95;64.03
46392;BME280;32098;49.448;7.904;2023-02-18T11:35:36;98858.16;;;10.01;64.16
46392;BME280;32098;49.448;7.904;2023-02-18T11:38:17;98804.84;;;9.81;63.76
46392;BME280;32098;49.448;7.904;2023-02-18T11:41:04;98828.38;;;10.17;63.16
46392;BME280;32098;49.448;7.904;2023-02-18T11:43:34;98844.47;;;10.35;63.26
46392;BME280;32098;49.448;7.904;2023-02-18T11:46:18;98821.69;;;10.39;62.04
46392;BME280;32098;49.448;7.904;2023-02-18T11:48:46;98823.59;;;10.64;61.44
46392;BME280;32098;49.448;7.904;2023-02-18T11:51:18;98830.56;;;10.65;62.11
46392;BME280;32098;49.448;7.904;2023-02-18T11:53:57;98812.91;;;10.64;60.95
46392;BME280;32098;49.448;7.904;2023-02-18T11:56:31;98798.41;;;10.78;61.22
46392;BME280;32098;49.448;7.904;2023-02-18T11:59:00;98814.00;;;11.12;60.61
46392;BME280;32098;49.448;7.904;2023-02-18T12:02:20;98792.34;;;11.20;60.84
46392;BME280;32098;49.448;7.904;2023-02-18T12:04:42;98741.50;;;10.53;59.48
46392;BME280;32098;49.448;7.904;2023-02-18T12:07:19;98769.13;;;10.65;59.60
46392;BME280;32098;49.448;7.904;2023-02-18T12:09:54;98724.56;;;10.34;60.20
46392;BME280;32098;49.448;7.904;2023-02-18T12:12:42;98784.19;;;10.84;60.16
46392;BME280;32098;49.448;7.904;2023-02-18T12:15:24;98788.22;;;10.93;60.39
46392;BME280;32098;49.448;7.904;2023-02-18T12:18:12;98731.69;;;10.71;60.49
46392;BME280;32098;49.448;7.904;2023-02-18T12:23:58;98772.91;;;11.06;59.25
46392;BME280;32098;49.448;7.904;2023-02-18T12:26:58;98759.16;;;10.78;59.69
46392;BME280;32098;49.448;7.904;2023-02-18T12:32:15;98777.16;;;11.39;59.44
46392;BME280;32098;49.448;7.904;2023-02-18T12:34:52;98763.88;;;11.32;58.38
46392;BME280;32098;49.448;7.904;2023-02-18T12:43:37;98766.31;;;11.88;58.13
46392;BME280;32098;49.448;7.904;2023-02-18T12:52:07;98757.19;;;11.59;57.66
46392;BME280;32098;49.448;7.904;2023-02-18T12:55:08;98687.41;;;10.82;57.33
46392;BME280;32098;49.448;7.904;2023-02-18T12:58:16;98745.78;;;11.03;57.86
46392;BME280;32098;49.448;7.904;2023-02-18T13:07:23;98675.84;;;10.63;57.12
46392;BME280;32098;49.448;7.904;2023-02-18T13:10:11;98745.50;;;11.11;57.91
46392;BME280;32098;49.448;7.904;2023-02-18T13:16:12;98721.63;;;11.16;57.54
46392;BME280;32098;49.448;7.904;2023-02-18T13:18:48;98694.59;;;11.24;58.31
46392;BME280;32098;49.448;7.904;2023-02-18T13:21:21;98723.75;;;11.50;57.35
46392;BME280;32098;49.448;7.904;2023-02-18T13:23:51;98704.94;;;11.57;57.65
46392;BME280;32098;49.448;7.904;2023-02-18T13:26:20;98725.03;;;11.48;57.38
46392;BME280;32098;49.448;7.904;2023-02-18T13:29:18;98712.00;;;11.51;57.07
46392;BME280;32098;49.448;7.904;2023-02-18T13:34:47;98718.09;;;11.58;57.75
46392;BME280;32098;49.448;7.904;2023-02-18T13:39:57;98711.75;;;11.71;57.47
46392;BME280;32098;49.448;7.904;2023-02-18T13:42:34;98710.34;;;11.68;57.39
46392;BME280;32098;49.448;7.904;2023-02-18T13:45:04;98684.81;;;11.54;57.47
46392;BME280;32098;49.448;7.904;2023-02-18T13:47:45;98727.03;;;11.52;56.90
46392;BME280;32098;49.448;7.904;2023-02-18T13:53:01;98737.03;;;11.39;57.79
46392;BME280;32098;49.448;7.904;2023-02-18T13:58:50;98721.56;;;10.98;58.51
46392;BME280;32098;49.448;7.904;2023-02-18T14:03:57;98702.78;;;10.86;58.65
46392;BME280;32098;49.448;7.904;2023-02-18T14:06:29;98702.97;;;10.67;58.45
46392;BME280;32098;49.448;7.904;2023-02-18T14:11:52;98673.28;;;10.25;59.46
46392;BME280;32098;49.448;7.904;2023-02-18T14:17:13;98720.13;;;10.53;59.38
46392;BME280;32098;49.448;7.904;2023-02-18T14:19:41;98724.25;;;10.48;59.85
46392;BME280;32098;49.448;7.904;2023-02-18T14:22:27;98720.66;;;10.36;60.25
46392;BME280;32098;49.448;7.904;2023-02-18T14:28:03;98724.31;;;10.67;59.97
46392;BME280;32098;49.448;7.904;2023-02-18T14:30:50;98691.13;;;10.56;60.20
46392;BME280;32098;49.448;7.904;2023-02-18T14:33:17;98703.22;;;10.34;60.00
46392;BME280;32098;49.448;7.904;2023-02-18T14:35:53;98688.09;;;10.21;60.28
46392;BME280;32098;49.448;7.904;2023-02-18T14:38:56;98721.63;;;10.42;60.89
46392;BME280;32098;49.448;7.904;2023-02-18T14:47:28;98721.25;;;10.38;60.79
46392;BME280;32098;49.448;7.904;2023-02-18T14:50:03;98687.28;;;10.21;61.10
46392;BME280;32098;49.448;7.904;2023-02-18T14:52:49;98710.06;;;10.23;61.74
46392;BME280;32098;49.448;7.904;2023-02-18T14:55:32;98714.72;;;10.34;61.63
46392;BME280;32098;49.448;7.904;2023-02-18T14:58:04;98722.47;;;10.42;61.59
46392;BME280;32098;49.448;7.904;2023-02-18T15:00:40;98727.16;;;10.47;61.88
46392;BME280;32098;49.448;7.904;2023-02-18T15:03:17;98739.75;;;10.40;61.99